createdAt,value
2023-04-16T00:00:53.768Z,99153.28
2023-04-16T00:03:21.701Z,99160.91
2023-04-16T00:05:49.468Z,99153.31
2023-04-16T00:08:17.276Z,99151.59
2023-04-16T00:10:46.232Z,99160.25
2023-04-16T00:13:13.845Z,99157.72
2023-04-16T00:15:41.423Z,99163.06
2023-04-16T00:18:09.018Z,99162.09
2023-04-16T00:20:36.802Z,99168.06
2023-04-16T00:23:04.418Z,99160.44
2023-04-16T00:25:32.021Z,99158.47
2023-04-16T00:28:00.920Z,99156.81
2023-04-16T00:30:28.835Z,99155.03
2023-04-16T00:32:56.573Z,99161.09
2023-04-16T00:35:24.228Z,99155.03
2023-04-16T00:37:52.055Z,99157.81
2023-04-16T00:40:19.827Z,99162.88
2023-04-16T00:42:47.746Z,99156.75
2023-04-16T00:45:16.942Z,99166.41
2023-04-16T00:47:44.937Z,99161.81
2023-04-16T00:50:13.205Z,99166.56
2023-04-16T00:52:41.027Z,99162.00
2023-04-16T00:55:13.198Z,99158.06
2023-04-16T00:57:41.060Z,99168.13
2023-04-16T01:00:09.750Z,99171.66
2023-04-16T01:02:38.864Z,99173.50
2023-04-16T01:05:07.599Z,99171.53
2023-04-16T01:07:35.296Z,99176.19
2023-04-16T01:10:03.708Z,99170.84
2023-04-16T01:12:32.514Z,99174.38
2023-04-16T01:15:00.749Z,99169.94
2023-04-16T01:17:28.527Z,99175.19
2023-04-16T01:20:00.566Z,99181.44
2023-04-16T01:22:29.752Z,99189.38
2023-04-16T01:24:57.702Z,99189.31
2023-04-16T01:27:25.781Z,99197.19
2023-04-16T01:29:53.571Z,99198.84
2023-04-16T01:32:21.461Z,99199.75
2023-04-16T01:34:49.300Z,99199.81
2023-04-16T01:37:16.922Z,99198.97
2023-04-16T01:39:45.958Z,99199.66
2023-04-16T01:42:13.641Z,99209.50
2023-04-16T01:44:41.283Z,99205.91
2023-04-16T01:47:09.194Z,99207.63
2023-04-16T01:49:37.010Z,99215.75
2023-04-16T01:52:04.696Z,99209.31
2023-04-16T01:54:32.249Z,99210.25
2023-04-16T01:57:01.749Z,99213.75
2023-04-16T01:59:29.296Z,99205.63
2023-04-16T02:01:57.098Z,99203.50
2023-04-16T02:04:24.729Z,99197.34
2023-04-16T02:06:52.322Z,99197.50
2023-04-16T02:09:19.881Z,99191.84
2023-04-16T02:11:47.469Z,99199.97
2023-04-16T02:14:16.382Z,99190.66
2023-04-16T02:16:44.105Z,99196.53
2023-04-16T02:19:11.778Z,99202.13
2023-04-16T02:21:39.604Z,99181.78
2023-04-16T02:24:07.219Z,99203.50
2023-04-16T02:26:34.968Z,99201.78
2023-04-16T02:29:02.723Z,99209.03
2023-04-16T02:31:31.804Z,99218.59
2023-04-16T02:33:59.545Z,99206.13
2023-04-16T02:36:27.385Z,99217.06
2023-04-16T02:38:55.038Z,99212.66
2023-04-16T02:41:22.876Z,99209.66
2023-04-16T02:43:50.458Z,99209.91
2023-04-16T02:46:18.225Z,99207.41
2023-04-16T02:48:47.245Z,99206.81
2023-04-16T02:51:14.777Z,99204.88
2023-04-16T02:53:45.822Z,99204.28
2023-04-16T02:56:13.679Z,99202.41
2023-04-16T02:58:41.268Z,99197.22
2023-04-16T03:01:08.878Z,99206.09
2023-04-16T03:03:36.526Z,99209.56
2023-04-16T03:06:05.544Z,99206.81
2023-04-16T03:08:33.126Z,99212.06
2023-04-16T03:11:00.769Z,99213.56
2023-04-16T03:13:28.399Z,99214.47
2023-04-16T03:15:56.057Z,99218.00
2023-04-16T03:18:23.715Z,99213.72
2023-04-16T03:20:53.032Z,99218.91
2023-04-16T03:23:22.026Z,99217.25
2023-04-16T03:25:49.550Z,99217.81
2023-04-16T03:28:17.172Z,99212.53
2023-04-16T03:30:44.751Z,99213.56
2023-04-16T03:33:12.311Z,99221.88
2023-04-16T03:35:39.890Z,99228.16
2023-04-16T03:38:07.497Z,99231.91
2023-04-16T03:40:36.561Z,99225.88
2023-04-16T03:43:04.408Z,99233.66
2023-04-16T03:45:31.977Z,99238.53
2023-04-16T03:47:59.660Z,99241.28
2023-04-16T03:50:27.240Z,99234.28
2023-04-16T03:52:54.917Z,99234.38
2023-04-16T03:55:22.500Z,99236.19
2023-04-16T03:57:51.436Z,99232.75
2023-04-16T04:00:19.228Z,99230.84
2023-04-16T04:02:47.028Z,99234.91
2023-04-16T04:05:14.955Z,99238.63
2023-04-16T04:07:42.576Z,99232.41
2023-04-16T04:10:10.843Z,99237.56
2023-04-16T04:12:38.499Z,99241.81
2023-04-16T04:15:08.809Z,99234.91
2023-04-16T04:17:36.398Z,99236.03
2023-04-16T04:20:04.269Z,99237.63
2023-04-16T04:22:31.927Z,99240.38
2023-04-16T04:24:59.474Z,99244.47
2023-04-16T04:27:27.116Z,99243.06
2023-04-16T04:29:54.656Z,99229.69
2023-04-16T04:32:23.730Z,99233.28
2023-04-16T04:34:51.490Z,99225.63
2023-04-16T04:37:19.124Z,99227.34
2023-04-16T04:39:46.641Z,99226.75
2023-04-16T04:42:14.293Z,99225.78
2023-04-16T04:44:41.844Z,99234.66
2023-04-16T04:47:09.385Z,99243.09
2023-04-16T04:49:38.316Z,99241.25
2023-04-16T04:52:06.045Z,99250.88
2023-04-16T04:54:33.990Z,99244.00
2023-04-16T04:57:01.868Z,99258.72
2023-04-16T04:59:29.498Z,99266.53
2023-04-16T05:01:57.057Z,99256.31
2023-04-16T05:04:24.692Z,99263.34
2023-04-16T05:06:53.589Z,99266.06
2023-04-16T05:09:21.292Z,99271.41
2023-04-16T05:11:50.568Z,99279.22
2023-04-16T05:14:18.173Z,99276.81
2023-04-16T05:16:45.916Z,99286.41
2023-04-16T05:19:13.585Z,99296.00
2023-04-16T05:21:41.310Z,99297.78
2023-04-16T05:24:10.356Z,99296.00
2023-04-16T05:26:37.951Z,99296.69
2023-04-16T05:29:05.854Z,99298.25
2023-04-16T05:31:33.624Z,99293.81
2023-04-16T05:34:01.211Z,99293.25
2023-04-16T05:36:28.961Z,99301.75
2023-04-16T05:38:56.539Z,99305.31
2023-04-16T05:41:25.543Z,99312.16
2023-04-16T05:43:53.139Z,99318.31
2023-04-16T05:46:20.938Z,99319.44
2023-04-16T05:48:48.528Z,99313.56
2023-04-16T05:51:16.161Z,99316.91
2023-04-16T05:53:43.862Z,99316.69
2023-04-16T05:56:11.399Z,99310.56
2023-04-16T05:58:40.379Z,99307.81
2023-04-16T06:01:08.333Z,99302.88
2023-04-16T06:03:36.037Z,99306.31
2023-04-16T06:06:03.732Z,99315.88
2023-04-16T06:08:31.397Z,99311.44
2023-04-16T06:10:59.013Z,99325.38
2023-04-16T06:13:26.668Z,99325.44
2023-04-16T06:15:55.903Z,99326.91
2023-04-16T06:18:23.546Z,99323.69
2023-04-16T06:20:51.190Z,99326.09
2023-04-16T06:23:18.766Z,99328.19
2023-04-16T06:25:46.326Z,99328.06
2023-04-16T06:28:13.936Z,99326.91
2023-04-16T06:30:43.371Z,99330.59
2023-04-16T06:33:13.565Z,99332.88
2023-04-16T06:35:41.163Z,99336.25
2023-04-16T06:38:08.878Z,99333.94
2023-04-16T06:40:37.512Z,99327.88
2023-04-16T06:43:05.125Z,99334.34
2023-04-16T06:45:32.765Z,99336.06
2023-04-16T06:48:01.456Z,99342.13
2023-04-16T06:50:30.458Z,99339.56
2023-04-16T06:52:58.436Z,99341.31
2023-04-16T06:55:26.035Z,99347.50
2023-04-16T06:57:53.613Z,99354.31
2023-04-16T07:00:21.537Z,99355.94
2023-04-16T07:02:49.219Z,99354.59
2023-04-16T07:05:16.939Z,99347.38
2023-04-16T07:07:45.896Z,99350.63
2023-04-16T07:10:13.524Z,99346.09
2023-04-16T07:12:41.166Z,99347.72
2023-04-16T07:15:09.901Z,99347.16
2023-04-16T07:17:37.675Z,99348.28
2023-04-16T07:20:06.073Z,99346.03
2023-04-16T07:22:33.656Z,99343.25
2023-04-16T07:25:02.572Z,99349.28
2023-04-16T07:27:30.163Z,99357.69
2023-04-16T07:29:57.781Z,99354.47
2023-04-16T07:32:25.512Z,99355.25
2023-04-16T07:34:53.257Z,99362.31
2023-04-16T07:37:20.936Z,99356.91
2023-04-16T07:39:48.546Z,99361.19
2023-04-16T07:42:17.544Z,99368.38
2023-04-16T07:44:45.209Z,99365.00
2023-04-16T07:47:12.887Z,99362.63
2023-04-16T07:49:40.775Z,99361.19
2023-04-16T07:52:08.426Z,99369.69
2023-04-16T07:54:36.005Z,99368.78
2023-04-16T07:57:03.619Z,99367.16
2023-04-16T07:59:32.547Z,99366.44
2023-04-16T08:02:00.271Z,99363.63
2023-04-16T08:04:28.130Z,99367.50
2023-04-16T08:06:56.162Z,99371.75
2023-04-16T08:09:24.853Z,99379.47
2023-04-16T08:11:52.476Z,99377.56
2023-04-16T08:14:20.293Z,99379.56
2023-04-16T08:16:49.253Z,99382.06
2023-04-16T08:19:16.949Z,99393.38
2023-04-16T08:21:44.613Z,99399.41
2023-04-16T08:24:12.436Z,99397.56
2023-04-16T08:26:40.473Z,99404.16
2023-04-16T08:29:08.217Z,99402.22
2023-04-16T08:31:35.994Z,99409.28
2023-04-16T08:34:04.977Z,99407.28
2023-04-16T08:36:32.591Z,99399.59
2023-04-16T08:39:00.150Z,99405.56
2023-04-16T08:41:28.487Z,99404.59
2023-04-16T08:43:56.937Z,99407.28
2023-04-16T08:46:26.114Z,99408.03
2023-04-16T08:48:55.534Z,99417.50
2023-04-16T08:51:25.019Z,99414.16
2023-04-16T08:53:54.195Z,99417.78
2023-04-16T08:56:23.701Z,99428.25
2023-04-16T08:58:52.069Z,99429.72
2023-04-16T09:01:19.936Z,99432.25
2023-04-16T09:03:48.596Z,99427.34
2023-04-16T09:06:16.891Z,99429.91
2023-04-16T09:08:46.667Z,99433.16
2023-04-16T09:11:15.056Z,99436.19
2023-04-16T09:13:42.652Z,99439.63
2023-04-16T09:16:10.896Z,99433.63
2023-04-16T09:18:38.529Z,99441.41
2023-04-16T09:21:07.662Z,99443.94
2023-04-16T09:23:35.308Z,99445.66
2023-04-16T09:26:06.096Z,99451.00
2023-04-16T09:28:40.224Z,99456.31
2023-04-16T09:31:12.248Z,99453.69
2023-04-16T09:33:40.056Z,99454.59
2023-04-16T09:36:07.939Z,99462.25
2023-04-16T09:38:49.913Z,99462.44
2023-04-16T09:41:19.056Z,99464.91
2023-04-16T09:43:57.485Z,99464.72
2023-04-16T09:46:26.198Z,99466.78
2023-04-16T09:48:53.894Z,99469.16
2023-04-16T09:51:21.575Z,99472.50
2023-04-16T09:53:52.805Z,99471.25
2023-04-16T09:56:24.710Z,99473.75
2023-04-16T09:58:52.361Z,99469.78
2023-04-16T10:01:21.023Z,99458.31
2023-04-16T10:03:51.076Z,99464.66
2023-04-16T10:06:20.622Z,99463.97
2023-04-16T10:08:50.165Z,99465.41
2023-04-16T10:11:18.847Z,99472.50
2023-04-16T10:13:47.750Z,99480.91
2023-04-16T10:16:15.805Z,99475.38
2023-04-16T10:18:44.611Z,99481.22
2023-04-16T10:21:12.898Z,99484.16
2023-04-16T10:23:41.025Z,99491.22
2023-04-16T10:26:09.000Z,99492.72
2023-04-16T10:28:36.953Z,99487.22
2023-04-16T10:31:08.150Z,99494.38
2023-04-16T10:33:37.999Z,99494.97
2023-04-16T10:36:10.395Z,99487.53
2023-04-16T10:38:40.789Z,99497.31
2023-04-16T10:41:09.259Z,99501.59
2023-04-16T10:43:41.170Z,99488.28
2023-04-16T10:46:24.228Z,99496.13
2023-04-16T10:48:54.388Z,99495.38
2023-04-16T10:51:27.911Z,99495.59
2023-04-16T10:53:56.891Z,99488.22
2023-04-16T10:56:26.106Z,99501.09
2023-04-16T10:58:54.804Z,99492.78
2023-04-16T11:01:30.983Z,99492.44
2023-04-16T11:04:00.119Z,99500.16
2023-04-16T11:06:29.569Z,99497.16
2023-04-16T11:08:57.266Z,99498.88
2023-04-16T11:11:24.954Z,99489.63
2023-04-16T11:13:56.674Z,99494.00
2023-04-16T11:16:26.214Z,99492.22
2023-04-16T11:18:56.313Z,99490.44
2023-04-16T11:21:24.766Z,99490.94
2023-04-16T11:23:53.788Z,99488.53
2023-04-16T11:26:25.959Z,99502.53
2023-04-16T11:28:54.913Z,99493.69
2023-04-16T11:31:23.356Z,99496.75
2023-04-16T11:33:52.522Z,99493.38
2023-04-16T11:36:20.155Z,99489.53
2023-04-16T11:38:48.039Z,99499.09
2023-04-16T11:41:21.703Z,99500.00
2023-04-16T11:43:49.261Z,99494.97
2023-04-16T11:46:27.064Z,99494.75
2023-04-16T11:48:56.993Z,99498.47
2023-04-16T11:51:24.647Z,99497.56
2023-04-16T11:53:53.411Z,99505.72
2023-04-16T11:56:28.425Z,99503.31
2023-04-16T11:59:12.529Z,99493.38
2023-04-16T12:01:41.962Z,99504.31
2023-04-16T12:04:11.108Z,99503.09
2023-04-16T12:06:39.024Z,99504.06
2023-04-16T12:09:25.548Z,99500.31
2023-04-16T12:11:53.233Z,99508.66
2023-04-16T12:14:21.454Z,99495.41
2023-04-16T12:16:49.216Z,99506.09
2023-04-16T12:19:19.175Z,99503.13
2023-04-16T12:21:47.881Z,99507.44
2023-04-16T12:24:16.717Z,99511.34
2023-04-16T12:26:45.291Z,99508.84
2023-04-16T12:29:19.892Z,99509.00
2023-04-16T12:31:47.718Z,99513.75
2023-04-16T12:34:16.120Z,99506.03
2023-04-16T12:36:46.350Z,99506.91
2023-04-16T12:39:15.791Z,99505.13
2023-04-16T12:41:44.585Z,99502.56
2023-04-16T12:44:13.990Z,99509.41
2023-04-16T12:46:42.308Z,99496.16
2023-04-16T12:49:11.048Z,99498.72
2023-04-16T12:51:39.503Z,99503.81
2023-04-16T12:54:08.686Z,99502.16
2023-04-16T12:56:36.640Z,99504.69
2023-04-16T12:59:04.820Z,99488.75
2023-04-16T13:01:32.567Z,99504.47
2023-04-16T13:04:00.319Z,99496.47
2023-04-16T13:06:28.014Z,99495.22
2023-04-16T13:08:55.834Z,99490.81
2023-04-16T13:11:24.899Z,99500.19
2023-04-16T13:13:52.592Z,99497.19
2023-04-16T13:16:20.302Z,99502.78
2023-04-16T13:18:48.013Z,99493.47
2023-04-16T13:21:15.801Z,99499.22
2023-04-16T13:23:43.425Z,99501.34
2023-04-16T13:26:12.996Z,99499.00
2023-04-16T13:28:41.916Z,99502.25
2023-04-16T13:31:09.607Z,99506.28
2023-04-16T13:33:37.271Z,99504.63
2023-04-16T13:36:05.229Z,99502.59
2023-04-16T13:38:32.764Z,99507.25
2023-04-16T13:41:00.528Z,99505.06
2023-04-16T13:43:28.147Z,99512.56
2023-04-16T13:45:57.169Z,99506.63
2023-04-16T13:48:24.929Z,99513.00
2023-04-16T13:50:52.595Z,99500.75
2023-04-16T13:53:20.333Z,99509.97
2023-04-16T13:55:49.467Z,99511.81
2023-04-16T13:58:17.546Z,99508.09
2023-04-16T14:00:45.259Z,99510.97
2023-04-16T14:03:14.307Z,99502.00
2023-04-16T14:05:43.023Z,99505.59
2023-04-16T14:08:11.174Z,99508.75
2023-04-16T14:10:38.802Z,99505.69
2023-04-16T14:13:06.411Z,99509.66
2023-04-16T14:15:34.093Z,99505.31
2023-04-16T14:18:03.815Z,99507.16
2023-04-16T14:20:33.062Z,99507.13
2023-04-16T14:23:00.722Z,99504.69
2023-04-16T14:25:28.313Z,99505.78
2023-04-16T14:27:56.048Z,99488.09
2023-04-16T14:30:23.580Z,99509.19
2023-04-16T14:32:51.238Z,99508.44
2023-04-16T14:35:19.469Z,99516.75
2023-04-16T14:37:48.567Z,99510.44
2023-04-16T14:40:16.272Z,99506.31
2023-04-16T14:42:44.026Z,99500.00
2023-04-16T14:45:11.791Z,99498.44
2023-04-16T14:47:45.774Z,99500.94
2023-04-16T14:50:14.155Z,99500.06
2023-04-16T14:52:42.195Z,99508.31
2023-04-16T14:55:11.375Z,99499.28
2023-04-16T14:57:39.358Z,99504.50
2023-04-16T15:00:10.640Z,99499.91
2023-04-16T15:02:38.819Z,99501.16
2023-04-16T15:05:09.785Z,99501.56
2023-04-16T15:07:39.295Z,99486.28
2023-04-16T15:10:08.383Z,99505.13
2023-04-16T15:12:38.048Z,99493.59
2023-04-16T15:15:06.807Z,99500.75
2023-04-16T15:17:34.564Z,99489.53
2023-04-16T15:20:05.980Z,99491.94
2023-04-16T15:22:33.554Z,99494.75
2023-04-16T15:25:01.331Z,99490.28
2023-04-16T15:27:29.119Z,99498.63
2023-04-16T15:29:58.175Z,99502.97
2023-04-16T15:32:25.990Z,99499.69
2023-04-16T15:34:53.648Z,99509.59
2023-04-16T15:37:21.235Z,99507.22
2023-04-16T15:39:49.698Z,99502.34
2023-04-16T15:42:17.416Z,99504.50
2023-04-16T15:44:45.097Z,99508.56
2023-04-16T15:47:14.244Z,99513.88
2023-04-16T15:49:41.927Z,99521.44
2023-04-16T15:52:10.289Z,99526.09
2023-04-16T15:54:38.027Z,99523.44
2023-04-16T15:57:05.703Z,99528.19
2023-04-16T15:59:33.679Z,99528.97
2023-04-16T16:02:01.829Z,99522.47
2023-04-16T16:04:31.260Z,99522.63
2023-04-16T16:06:58.940Z,99528.47
2023-04-16T16:09:26.970Z,99522.41
2023-04-16T16:11:54.854Z,99522.56
2023-04-16T16:14:22.583Z,99528.06
2023-04-16T16:16:50.235Z,99531.28
2023-04-16T16:19:17.846Z,99523.56
2023-04-16T16:21:46.837Z,99529.94
2023-04-16T16:24:14.441Z,99526.16
2023-04-16T16:26:42.121Z,99522.28
2023-04-16T16:29:10.000Z,99535.09
2023-04-16T16:31:37.970Z,99525.78
2023-04-16T16:34:05.699Z,99533.81
2023-04-16T16:36:36.686Z,99532.88
2023-04-16T16:39:05.776Z,99535.94
2023-04-16T16:41:37.475Z,99539.03
2023-04-16T16:44:05.615Z,99538.59
2023-04-16T16:46:33.281Z,99535.25
2023-04-16T16:49:01.157Z,99527.31
2023-04-16T16:51:30.407Z,99527.00
2023-04-16T16:53:58.190Z,99531.00
2023-04-16T16:56:27.227Z,99539.09
2023-04-16T16:58:54.856Z,99538.88
2023-04-16T17:01:22.575Z,99546.34
2023-04-16T17:03:50.456Z,99529.75
2023-04-16T17:06:18.241Z,99543.19
2023-04-16T17:08:47.418Z,99537.59
2023-04-16T17:11:15.946Z,99541.34
2023-04-16T17:13:44.919Z,99547.66
2023-04-16T17:16:13.192Z,99549.16
2023-04-16T17:18:40.864Z,99547.94
2023-04-16T17:21:08.524Z,99562.53
2023-04-16T17:23:36.163Z,99553.16
2023-04-16T17:26:03.815Z,99553.16
2023-04-16T17:28:31.396Z,99558.38
2023-04-16T17:31:01.452Z,99549.38
2023-04-16T17:33:29.014Z,99561.00
2023-04-16T17:35:56.601Z,99559.34
2023-04-16T17:38:24.243Z,99561.47
2023-04-16T17:40:51.910Z,99574.06
2023-04-16T17:43:19.521Z,99567.84
2023-04-16T17:45:47.181Z,99575.03
2023-04-16T17:48:16.340Z,99588.38
2023-04-16T17:50:43.920Z,99566.97
2023-04-16T17:53:11.549Z,99583.28
2023-04-16T17:55:39.114Z,99578.97
2023-04-16T17:58:06.754Z,99580.09
2023-04-16T18:00:34.484Z,99576.66
2023-04-16T18:03:02.739Z,99583.47
2023-04-16T18:05:32.082Z,99592.00
2023-04-16T18:07:59.727Z,99589.59
2023-04-16T18:10:29.390Z,99601.59
2023-04-16T18:12:57.005Z,99601.03
2023-04-16T18:15:24.547Z,99599.44
2023-04-16T18:17:52.158Z,99599.78
2023-04-16T18:20:19.860Z,99593.03
2023-04-16T18:22:48.766Z,99598.88
2023-04-16T18:25:16.501Z,99599.00
2023-04-16T18:27:44.765Z,99603.47
2023-04-16T18:30:23.491Z,99608.06
2023-04-16T18:33:09.928Z,99609.84
2023-04-16T18:35:41.656Z,99619.75
2023-04-16T18:38:10.606Z,99614.66
2023-04-16T18:40:38.264Z,99629.06
2023-04-16T18:43:05.864Z,99620.47
2023-04-16T18:45:34.259Z,99622.06
2023-04-16T18:48:04.057Z,99624.81
2023-04-16T18:50:31.956Z,99625.97
2023-04-16T18:52:59.713Z,99631.00
2023-04-16T18:55:30.077Z,99634.34
2023-04-16T18:57:57.659Z,99625.09
2023-04-16T19:00:25.320Z,99632.44
2023-04-16T19:02:52.963Z,99633.25
2023-04-16T19:05:21.566Z,99633.56
2023-04-16T19:07:49.184Z,99628.25
2023-04-16T19:10:16.933Z,99630.88
2023-04-16T19:12:45.905Z,99633.28
2023-04-16T19:15:14.777Z,99638.63
2023-04-16T19:17:42.705Z,99641.59
2023-04-16T19:20:11.393Z,99645.44
2023-04-16T19:22:39.185Z,99635.81
2023-04-16T19:25:07.731Z,99641.34
2023-04-16T19:27:35.500Z,99649.16
2023-04-16T19:30:05.159Z,99651.13
2023-04-16T19:32:32.984Z,99647.63
2023-04-16T19:35:00.670Z,99658.22
2023-04-16T19:37:28.202Z,99650.44
2023-04-16T19:39:55.929Z,99650.44
2023-04-16T19:42:23.452Z,99656.03
2023-04-16T19:44:51.050Z,99654.66
2023-04-16T19:47:20.232Z,99661.09
2023-04-16T19:49:47.844Z,99661.00
2023-04-16T19:52:16.204Z,99657.91
2023-04-16T19:54:43.831Z,99651.97
2023-04-16T19:57:11.377Z,99654.63
2023-04-16T19:59:39.095Z,99659.53
2023-04-16T20:02:06.657Z,99655.84
2023-04-16T20:04:38.628Z,99660.19
2023-04-16T20:07:06.717Z,99661.06
2023-04-16T20:09:34.545Z,99659.28
2023-04-16T20:12:02.638Z,99656.41
2023-04-16T20:14:30.234Z,99661.66
2023-04-16T20:16:57.862Z,99657.84
2023-04-16T20:19:29.907Z,99667.69
2023-04-16T20:21:59.036Z,99664.00
2023-04-16T20:24:26.583Z,99668.75
2023-04-16T20:26:54.179Z,99664.19
2023-04-16T20:29:21.910Z,99665.19
2023-04-16T20:31:49.597Z,99668.75
2023-04-16T20:34:17.178Z,99666.16
2023-04-16T20:36:44.791Z,99668.19
2023-04-16T20:39:13.878Z,99663.94
2023-04-16T20:41:43.890Z,99660.28
2023-04-16T20:44:18.141Z,99667.22
2023-04-16T20:46:50.774Z,99674.66
2023-04-16T20:49:18.613Z,99666.56
2023-04-16T20:51:46.219Z,99665.41
2023-04-16T20:54:15.139Z,99660.78
2023-04-16T20:56:43.168Z,99663.25
2023-04-16T20:59:11.136Z,99662.50
2023-04-16T21:01:38.902Z,99669.13
2023-04-16T21:04:07.175Z,99663.50
2023-04-16T21:06:38.367Z,99662.63
2023-04-16T21:09:06.459Z,99667.13
2023-04-16T21:11:35.798Z,99667.84
2023-04-16T21:14:03.730Z,99671.44
2023-04-16T21:16:31.951Z,99668.63
2023-04-16T21:19:00.043Z,99667.75
2023-04-16T21:21:28.477Z,99666.75
2023-04-16T21:23:56.558Z,99670.06
2023-04-16T21:26:24.466Z,99673.88
2023-04-16T21:28:55.150Z,99661.53
2023-04-16T21:31:24.220Z,99672.06
2023-04-16T21:33:52.554Z,99669.47
2023-04-16T21:36:20.497Z,99665.28
2023-04-16T21:38:48.442Z,99670.38
2023-04-16T21:41:16.415Z,99669.53
2023-04-16T21:43:44.166Z,99667.84
2023-04-16T21:46:13.576Z,99674.06
2023-04-16T21:48:41.198Z,99671.25
2023-04-16T21:51:09.974Z,99674.03
2023-04-16T21:53:39.160Z,99665.22
2023-04-16T21:56:07.717Z,99661.63
2023-04-16T21:58:35.582Z,99657.91
2023-04-16T22:01:03.207Z,99658.91
2023-04-16T22:03:33.471Z,99657.22
2023-04-16T22:06:01.960Z,99649.47
2023-04-16T22:08:34.276Z,99661.53
2023-04-16T22:11:03.794Z,99653.63
2023-04-16T22:13:32.719Z,99657.94
2023-04-16T22:16:02.771Z,99662.44
2023-04-16T22:18:33.601Z,99660.63
2023-04-16T22:21:01.570Z,99654.59
2023-04-16T22:23:29.488Z,99647.03
2023-04-16T22:25:57.814Z,99653.22
2023-04-16T22:28:25.922Z,99644.78
2023-04-16T22:30:53.755Z,99648.84
2023-04-16T22:33:22.144Z,99650.16
2023-04-16T22:35:51.387Z,99645.41
2023-04-16T22:38:19.186Z,99651.50
2023-04-16T22:40:48.239Z,99649.66
2023-04-16T22:43:16.196Z,99645.31
2023-04-16T22:45:46.034Z,99647.84
2023-04-16T22:48:13.758Z,99653.34
2023-04-16T22:50:42.124Z,99653.31
2023-04-16T22:53:11.283Z,99657.72
2023-04-16T22:55:39.107Z,99654.13
2023-04-16T22:58:06.863Z,99648.25
2023-04-16T23:00:35.254Z,99648.19
2023-04-16T23:03:03.047Z,99652.63
2023-04-16T23:05:30.893Z,99647.38
2023-04-16T23:07:58.640Z,99659.44
2023-04-16T23:10:27.909Z,99657.53
2023-04-16T23:12:55.622Z,99651.59
2023-04-16T23:15:23.246Z,99650.81
2023-04-16T23:17:50.951Z,99658.94
2023-04-16T23:20:18.644Z,99649.38
2023-04-16T23:22:46.551Z,99648.72
2023-04-16T23:25:14.542Z,99654.69
2023-04-16T23:27:43.665Z,99656.31
2023-04-16T23:30:12.111Z,99663.84
2023-04-16T23:32:40.060Z,99655.69
2023-04-16T23:35:08.921Z,99659.91
2023-04-16T23:37:36.503Z,99651.09
2023-04-16T23:40:04.773Z,99654.88
2023-04-16T23:42:32.347Z,99652.25
2023-04-16T23:45:01.996Z,99648.13
2023-04-16T23:47:29.716Z,99647.78
2023-04-16T23:49:57.388Z,99651.66
2023-04-16T23:52:25.037Z,99651.63
2023-04-16T23:54:54.805Z,99648.53
2023-04-16T23:57:22.516Z,99654.88
2023-04-16T23:59:50.326Z,99646.44
